createdAt,value
2023-05-19T00:00:13.576Z,6.30
2023-05-19T00:00:47.811Z,10.90
2023-05-19T00:01:18.448Z,14.70
2023-05-19T00:01:50.898Z,9.70
2023-05-19T00:02:23.415Z,7.30
2023-05-19T00:02:55.924Z,9.80
2023-05-19T00:03:28.336Z,9.20
2023-05-19T00:04:00.682Z,7.80
2023-05-19T00:04:33.176Z,7.70
2023-05-19T00:05:05.606Z,8.40
2023-05-19T00:05:38.106Z,12.80
2023-05-19T00:06:10.673Z,13.50
2023-05-19T00:06:43.078Z,12.30
2023-05-19T00:07:15.506Z,8.60
2023-05-19T00:07:48.038Z,8.70
2023-05-19T00:08:20.495Z,8.90
2023-05-19T00:08:52.964Z,13.20
2023-05-19T00:09:25.408Z,13.50
2023-05-19T00:09:57.932Z,8.10
2023-05-19T00:10:30.635Z,13.30
2023-05-19T00:11:02.891Z,15.30
2023-05-19T00:11:35.344Z,10.50
2023-05-19T00:12:07.779Z,9.40
2023-05-19T00:12:40.232Z,13.80
2023-05-19T00:13:12.689Z,17.10
2023-05-19T00:13:45.109Z,18.00
2023-05-19T00:14:17.533Z,15.70
2023-05-19T00:14:50.013Z,11.50
2023-05-19T00:15:22.457Z,11.70
2023-05-19T00:15:54.971Z,11.40
2023-05-19T00:16:27.521Z,8.50
2023-05-19T00:16:59.857Z,13.60
2023-05-19T00:17:32.328Z,16.90
2023-05-19T00:18:04.793Z,12.20
2023-05-19T00:18:37.299Z,10.10
2023-05-19T00:19:09.924Z,11.30
2023-05-19T00:19:42.196Z,11.00
2023-05-19T00:20:14.679Z,23.30
2023-05-19T00:20:47.165Z,24.80
2023-05-19T00:21:19.630Z,12.90
2023-05-19T00:21:52.090Z,11.70
2023-05-19T00:22:24.634Z,9.70
2023-05-19T00:22:57.075Z,12.50
2023-05-19T00:23:29.535Z,13.30
2023-05-19T00:24:02.001Z,11.40
2023-05-19T00:24:34.433Z,10.80
2023-05-19T00:25:07.133Z,14.20
2023-05-19T00:25:39.626Z,14.10
2023-05-19T00:26:12.098Z,12.40
2023-05-19T00:26:44.597Z,12.40
2023-05-19T00:27:17.072Z,14.70
2023-05-19T00:27:49.525Z,12.00
2023-05-19T00:28:22.025Z,13.40
2023-05-19T00:28:54.452Z,14.20
2023-05-19T00:29:26.966Z,14.80
2023-05-19T00:29:59.500Z,10.30
2023-05-19T00:30:32.213Z,13.70
2023-05-19T00:31:04.403Z,14.30
2023-05-19T00:31:36.869Z,13.30
2023-05-19T00:32:09.532Z,18.00
2023-05-19T00:32:41.852Z,14.90
2023-05-19T00:33:14.318Z,11.90
2023-05-19T00:33:46.754Z,12.80
2023-05-19T00:34:19.245Z,11.00
2023-05-19T00:34:51.776Z,7.90
2023-05-19T00:35:24.319Z,9.10
2023-05-19T00:35:56.787Z,12.20
2023-05-19T00:36:29.276Z,12.90
2023-05-19T00:37:01.740Z,12.20
2023-05-19T00:37:34.301Z,12.70
2023-05-19T00:38:06.901Z,16.60
2023-05-19T00:38:39.350Z,13.00
2023-05-19T00:39:11.782Z,10.00
2023-05-19T00:39:44.233Z,10.50
2023-05-19T00:40:16.690Z,14.10
2023-05-19T00:40:49.167Z,19.40
2023-05-19T00:41:21.658Z,20.90
2023-05-19T00:41:54.105Z,19.40
2023-05-19T00:42:26.643Z,15.40
2023-05-19T00:42:59.152Z,10.60
2023-05-19T00:43:31.650Z,9.70
2023-05-19T00:44:04.131Z,14.00
2023-05-19T00:44:36.589Z,13.40
2023-05-19T00:45:09.090Z,14.40
2023-05-19T00:45:41.629Z,12.40
2023-05-19T00:46:14.140Z,12.20
2023-05-19T00:46:46.701Z,15.90
2023-05-19T00:47:19.046Z,14.00
2023-05-19T00:47:51.573Z,13.90
2023-05-19T00:48:23.988Z,17.20
2023-05-19T00:48:56.547Z,14.90
2023-05-19T00:49:28.973Z,14.90
2023-05-19T00:50:01.439Z,15.90
2023-05-19T00:50:34.180Z,16.60
2023-05-19T00:51:14.047Z,15.40
2023-05-19T00:51:46.474Z,13.00
2023-05-19T00:52:18.929Z,9.70
2023-05-19T00:52:51.362Z,11.40
2023-05-19T00:53:23.822Z,11.80
2023-05-19T00:53:56.264Z,11.20
2023-05-19T00:54:28.689Z,13.70
2023-05-19T00:55:01.148Z,14.40
2023-05-19T00:55:33.599Z,16.50
2023-05-19T00:56:06.068Z,15.50
2023-05-19T00:56:38.518Z,10.40
2023-05-19T00:57:10.934Z,14.10
2023-05-19T00:57:43.381Z,19.30
2023-05-19T00:58:15.857Z,15.10
2023-05-19T00:58:48.349Z,18.40
2023-05-19T00:59:20.796Z,19.90
2023-05-19T00:59:53.199Z,16.30
2023-05-19T01:00:25.654Z,13.70
2023-05-19T01:00:58.166Z,12.20
2023-05-19T01:01:30.599Z,10.90
2023-05-19T01:02:03.069Z,12.30
2023-05-19T01:02:35.634Z,15.80
2023-05-19T01:03:08.110Z,19.60
2023-05-19T01:03:40.575Z,15.50
2023-05-19T01:04:12.960Z,11.70
2023-05-19T01:04:45.405Z,10.10
2023-05-19T01:05:24.936Z,16.40
2023-05-19T01:05:57.453Z,17.30
2023-05-19T01:06:29.859Z,17.80
2023-05-19T01:07:02.458Z,15.80
2023-05-19T01:07:34.775Z,10.10
2023-05-19T01:08:07.240Z,10.70
2023-05-19T01:08:39.670Z,12.70
2023-05-19T01:09:12.110Z,15.20
2023-05-19T01:09:44.554Z,12.40
2023-05-19T01:10:17.030Z,12.20
2023-05-19T01:10:49.452Z,14.20
2023-05-19T01:11:21.883Z,15.60
2023-05-19T01:11:54.369Z,12.00
2023-05-19T01:12:26.841Z,16.40
2023-05-19T01:12:59.281Z,16.90
2023-05-19T01:13:31.729Z,16.40
2023-05-19T01:14:04.176Z,22.30
2023-05-19T01:14:36.592Z,20.50
2023-05-19T01:15:09.028Z,12.30
2023-05-19T01:15:41.474Z,12.10
2023-05-19T01:16:13.968Z,13.50
2023-05-19T01:16:46.466Z,12.10
2023-05-19T01:17:18.802Z,10.70
2023-05-19T01:17:51.286Z,10.50
2023-05-19T01:18:23.674Z,14.10
2023-05-19T01:18:56.324Z,14.60
2023-05-19T01:19:28.535Z,13.10
2023-05-19T01:20:01.007Z,17.20
2023-05-19T01:20:33.645Z,14.20
2023-05-19T01:21:05.944Z,14.50
2023-05-19T01:21:38.377Z,12.10
2023-05-19T01:22:10.841Z,14.50
2023-05-19T01:22:43.350Z,13.90
2023-05-19T01:23:15.801Z,11.80
2023-05-19T01:23:48.222Z,13.50
2023-05-19T01:24:20.690Z,16.80
2023-05-19T01:24:53.069Z,19.80
2023-05-19T01:25:25.554Z,16.00
2023-05-19T01:25:57.977Z,15.60
2023-05-19T01:26:30.415Z,15.50
2023-05-19T01:27:02.836Z,15.00
2023-05-19T01:27:35.255Z,15.10
2023-05-19T01:28:07.677Z,12.10
2023-05-19T01:28:40.140Z,13.60
2023-05-19T01:29:12.542Z,16.40
2023-05-19T01:29:44.966Z,15.80
2023-05-19T01:30:17.405Z,16.20
2023-05-19T01:30:49.839Z,16.70
2023-05-19T01:31:22.319Z,15.90
2023-05-19T01:31:54.785Z,18.20
2023-05-19T01:32:27.168Z,16.00
2023-05-19T01:32:59.637Z,15.90
2023-05-19T01:33:32.015Z,12.30
2023-05-19T01:34:04.469Z,11.90
2023-05-19T01:34:36.904Z,15.20
2023-05-19T01:35:09.317Z,15.10
2023-05-19T01:35:41.754Z,12.30
2023-05-19T01:36:14.239Z,12.00
2023-05-19T01:36:46.673Z,15.50
2023-05-19T01:37:19.134Z,19.30
2023-05-19T01:37:51.604Z,15.30
2023-05-19T01:38:24.063Z,11.20
2023-05-19T01:38:56.515Z,14.50
2023-05-19T01:39:28.967Z,14.20
2023-05-19T01:40:01.410Z,14.30
2023-05-19T01:40:34.037Z,15.00
2023-05-19T01:41:06.332Z,13.70
2023-05-19T01:41:38.753Z,14.30
2023-05-19T01:42:11.169Z,14.90
2023-05-19T01:42:43.593Z,17.70
2023-05-19T01:43:16.002Z,15.70
2023-05-19T01:43:48.448Z,19.10
2023-05-19T01:44:20.859Z,20.70
2023-05-19T01:44:53.300Z,16.70
2023-05-19T01:45:25.786Z,17.80
2023-05-19T01:45:58.222Z,18.70
2023-05-19T01:46:30.739Z,13.10
2023-05-19T01:47:03.072Z,15.50
2023-05-19T01:47:35.527Z,14.10
2023-05-19T01:48:10.100Z,15.30
2023-05-19T01:48:40.478Z,19.00
2023-05-19T01:49:12.918Z,16.20
2023-05-19T01:49:45.388Z,15.10
2023-05-19T01:50:17.845Z,17.00
2023-05-19T01:50:50.277Z,16.30
2023-05-19T01:51:22.727Z,13.70
2023-05-19T01:51:55.179Z,15.10
2023-05-19T01:52:27.613Z,16.60
2023-05-19T01:53:00.046Z,14.30
2023-05-19T01:53:32.498Z,15.60
2023-05-19T01:54:04.925Z,16.10
2023-05-19T01:54:37.367Z,14.90
2023-05-19T01:55:09.818Z,18.00
2023-05-19T01:55:42.211Z,18.70
2023-05-19T01:56:14.657Z,14.50
2023-05-19T01:56:47.134Z,19.80
2023-05-19T01:57:19.528Z,18.30
2023-05-19T01:57:51.986Z,15.90
2023-05-19T01:58:24.445Z,18.30
2023-05-19T01:58:56.877Z,15.30
2023-05-19T01:59:29.323Z,18.90
2023-05-19T02:00:01.762Z,15.60
2023-05-19T02:00:34.369Z,11.50
2023-05-19T02:01:06.655Z,16.20
2023-05-19T02:01:39.129Z,18.50
2023-05-19T02:02:11.530Z,15.50
2023-05-19T02:02:44.025Z,16.10
2023-05-19T02:03:16.417Z,15.70
2023-05-19T02:03:48.845Z,12.60
2023-05-19T02:04:21.267Z,11.70
2023-05-19T02:04:53.746Z,11.80
2023-05-19T02:05:26.154Z,13.30
2023-05-19T02:05:58.552Z,16.10
2023-05-19T02:06:30.990Z,17.20
2023-05-19T02:07:03.453Z,21.00
2023-05-19T02:07:35.906Z,23.90
2023-05-19T02:08:08.375Z,20.50
2023-05-19T02:08:40.815Z,19.10
2023-05-19T02:09:13.267Z,14.50
2023-05-19T02:09:45.654Z,12.40
2023-05-19T02:10:18.106Z,12.70
2023-05-19T02:10:50.590Z,17.00
2023-05-19T02:11:23.134Z,16.50
2023-05-19T02:11:55.536Z,13.30
2023-05-19T02:12:27.971Z,14.90
2023-05-19T02:13:00.431Z,16.80
2023-05-19T02:13:32.896Z,13.60
2023-05-19T02:14:05.435Z,16.10
2023-05-19T02:14:37.907Z,14.60
2023-05-19T02:15:10.461Z,14.90
2023-05-19T02:15:42.992Z,21.40
2023-05-19T02:16:15.395Z,22.20
2023-05-19T02:16:47.791Z,20.10
2023-05-19T02:17:20.270Z,19.00
2023-05-19T02:17:52.735Z,17.90
2023-05-19T02:18:25.147Z,14.60
2023-05-19T02:18:57.642Z,11.90
2023-05-19T02:19:30.059Z,15.80
2023-05-19T02:20:02.448Z,22.10
2023-05-19T02:20:35.055Z,16.30
2023-05-19T02:21:07.315Z,16.40
2023-05-19T02:21:39.742Z,18.80
2023-05-19T02:22:12.184Z,18.30
2023-05-19T02:22:44.617Z,15.20
2023-05-19T02:23:17.027Z,16.50
2023-05-19T02:23:49.454Z,14.90
2023-05-19T02:24:21.880Z,16.60
2023-05-19T02:24:54.312Z,19.30
2023-05-19T02:25:26.741Z,23.00
2023-05-19T02:25:59.164Z,21.60
2023-05-19T02:26:31.618Z,18.80
2023-05-19T02:27:04.075Z,20.60
2023-05-19T02:27:36.516Z,16.60
2023-05-19T02:28:08.945Z,13.60
2023-05-19T02:28:41.385Z,18.70
2023-05-19T02:29:13.832Z,20.70
2023-05-19T02:29:46.320Z,20.70
2023-05-19T02:30:18.761Z,18.40
2023-05-19T02:30:51.262Z,16.20
2023-05-19T02:31:23.704Z,13.90
2023-05-19T02:31:56.154Z,15.60
2023-05-19T02:32:28.673Z,22.80
2023-05-19T02:33:01.256Z,22.60
2023-05-19T02:33:33.655Z,21.20
2023-05-19T02:34:06.067Z,20.70
2023-05-19T02:34:38.505Z,15.40
2023-05-19T02:35:10.950Z,14.00
2023-05-19T02:35:43.390Z,19.70
2023-05-19T02:36:15.837Z,14.80
2023-05-19T02:36:48.288Z,20.90
2023-05-19T02:37:20.748Z,21.90
2023-05-19T02:37:53.204Z,17.40
2023-05-19T02:38:25.653Z,15.40
2023-05-19T02:38:58.059Z,18.40
2023-05-19T02:39:30.507Z,22.30
2023-05-19T02:40:02.957Z,19.60
2023-05-19T02:40:35.410Z,16.60
2023-05-19T02:41:07.882Z,20.00
2023-05-19T02:41:40.357Z,20.10
2023-05-19T02:42:12.794Z,20.20
2023-05-19T02:42:45.268Z,16.30
2023-05-19T02:43:17.712Z,19.20
2023-05-19T02:43:50.125Z,17.90
2023-05-19T02:44:22.549Z,15.30
2023-05-19T02:44:55.026Z,20.60
2023-05-19T02:45:27.475Z,19.00
2023-05-19T02:46:00.011Z,17.80
2023-05-19T02:46:32.559Z,17.50
2023-05-19T02:47:04.851Z,14.20
2023-05-19T02:47:37.391Z,14.90
2023-05-19T02:48:09.762Z,14.40
2023-05-19T02:48:42.188Z,14.60
2023-05-19T02:49:14.647Z,15.20
2023-05-19T02:49:47.060Z,17.70
2023-05-19T02:50:19.498Z,17.50
2023-05-19T02:50:52.010Z,16.20
2023-05-19T02:51:24.454Z,17.00
2023-05-19T02:51:56.922Z,15.10
2023-05-19T02:52:29.365Z,15.40
2023-05-19T02:53:01.793Z,17.00
2023-05-19T02:53:34.212Z,27.00
2023-05-19T02:54:06.690Z,25.80
2023-05-19T02:54:39.126Z,19.60
2023-05-19T02:55:11.585Z,18.40
2023-05-19T02:55:44.030Z,15.40
2023-05-19T02:56:16.490Z,12.90
2023-05-19T02:56:48.934Z,12.70
2023-05-19T02:57:21.351Z,12.40
2023-05-19T02:57:53.755Z,22.70
2023-05-19T02:58:26.215Z,20.20
2023-05-19T02:58:58.704Z,14.90
2023-05-19T02:59:31.135Z,19.10
2023-05-19T03:00:03.651Z,18.20
2023-05-19T03:00:36.040Z,15.30
2023-05-19T03:01:08.487Z,17.70
2023-05-19T03:01:40.929Z,21.30
2023-05-19T03:02:13.419Z,23.00
2023-05-19T03:02:45.834Z,25.00
2023-05-19T03:03:18.346Z,27.30
2023-05-19T03:03:50.831Z,23.40
2023-05-19T03:04:23.168Z,23.90
2023-05-19T03:04:55.635Z,20.10
2023-05-19T03:05:28.062Z,21.80
2023-05-19T03:06:00.555Z,18.90
2023-05-19T03:06:32.977Z,19.90
2023-05-19T03:07:05.431Z,17.60
2023-05-19T03:07:37.856Z,16.40
2023-05-19T03:08:10.335Z,23.90
2023-05-19T03:08:42.763Z,23.80
2023-05-19T03:09:15.277Z,20.70
2023-05-19T03:09:47.685Z,17.10
2023-05-19T03:10:20.138Z,16.20
2023-05-19T03:10:52.532Z,16.30
2023-05-19T03:11:25.020Z,15.10
2023-05-19T03:11:57.491Z,16.00
2023-05-19T03:12:29.907Z,18.70
2023-05-19T03:13:02.343Z,18.20
2023-05-19T03:13:34.761Z,16.60
2023-05-19T03:14:07.272Z,21.60
2023-05-19T03:14:39.720Z,24.70
2023-05-19T03:15:12.151Z,21.30
2023-05-19T03:15:44.589Z,19.90
2023-05-19T03:16:17.044Z,20.20
2023-05-19T03:16:49.592Z,18.10
2023-05-19T03:17:22.067Z,16.70
2023-05-19T03:17:54.476Z,16.00
2023-05-19T03:18:26.896Z,16.70
2023-05-19T03:18:59.259Z,14.60
2023-05-19T03:19:31.673Z,23.30
2023-05-19T03:20:04.136Z,22.50
2023-05-19T03:20:36.573Z,18.60
2023-05-19T03:21:08.990Z,17.60
2023-05-19T03:21:41.407Z,17.60
2023-05-19T03:22:13.844Z,18.70
2023-05-19T03:22:46.292Z,19.50
2023-05-19T03:23:18.833Z,17.90
2023-05-19T03:23:51.256Z,18.90
2023-05-19T03:24:23.706Z,18.90
2023-05-19T03:24:56.130Z,18.20
2023-05-19T03:25:28.565Z,15.20
2023-05-19T03:26:01.032Z,20.90
2023-05-19T03:26:33.505Z,23.80
2023-05-19T03:27:05.961Z,21.20
2023-05-19T03:27:38.407Z,19.70
2023-05-19T03:28:10.816Z,19.00
2023-05-19T03:28:43.245Z,15.60
2023-05-19T03:29:15.667Z,15.50
2023-05-19T03:29:48.254Z,19.60
2023-05-19T03:30:20.912Z,19.30
2023-05-19T03:30:53.390Z,16.10
2023-05-19T03:31:25.854Z,15.90
2023-05-19T03:31:58.319Z,17.80
2023-05-19T03:32:30.702Z,21.70
2023-05-19T03:33:03.250Z,21.10
2023-05-19T03:33:35.599Z,17.50
2023-05-19T03:34:08.024Z,21.90
2023-05-19T03:34:40.431Z,22.00
2023-05-19T03:35:12.844Z,21.00
2023-05-19T03:35:45.270Z,20.60
2023-05-19T03:36:17.748Z,20.70
2023-05-19T03:36:50.208Z,19.60
2023-05-19T03:37:22.679Z,19.10
2023-05-19T03:37:55.153Z,19.10
2023-05-19T03:38:27.557Z,21.20
2023-05-19T03:38:59.969Z,24.00
2023-05-19T03:39:32.394Z,20.70
2023-05-19T03:40:04.816Z,17.50
2023-05-19T03:40:37.326Z,18.40
2023-05-19T03:41:09.806Z,23.00
2023-05-19T03:41:42.285Z,24.90
2023-05-19T03:42:14.733Z,23.20
2023-05-19T03:42:47.171Z,25.50
2023-05-19T03:43:19.600Z,24.20
2023-05-19T03:43:52.016Z,15.20
2023-05-19T03:44:24.520Z,17.80
2023-05-19T03:44:56.934Z,19.70
2023-05-19T03:45:29.448Z,15.10
2023-05-19T03:46:01.892Z,17.40
2023-05-19T03:46:34.308Z,23.10
2023-05-19T03:47:06.705Z,21.80
2023-05-19T03:47:39.160Z,18.70
2023-05-19T03:48:11.603Z,19.00
2023-05-19T03:48:44.053Z,18.30
2023-05-19T03:49:16.506Z,23.90
2023-05-19T03:49:48.916Z,28.20
2023-05-19T03:50:21.333Z,20.20
2023-05-19T03:50:53.802Z,16.40
2023-05-19T03:51:26.262Z,19.00
2023-05-19T03:51:58.728Z,21.20
2023-05-19T03:52:31.170Z,19.80
2023-05-19T03:53:03.604Z,22.10
2023-05-19T03:53:36.019Z,20.10
2023-05-19T03:54:08.433Z,19.00
2023-05-19T03:54:40.852Z,15.60
2023-05-19T03:55:13.285Z,19.50
2023-05-19T03:55:45.730Z,20.70
2023-05-19T03:56:18.189Z,17.40
2023-05-19T03:56:50.558Z,17.80
2023-05-19T03:57:23.004Z,21.40
2023-05-19T03:57:55.474Z,19.90
2023-05-19T03:58:27.895Z,15.90
2023-05-19T03:59:00.339Z,19.00
2023-05-19T03:59:32.781Z,18.90
2023-05-19T04:00:05.246Z,23.20
2023-05-19T04:00:37.678Z,25.00
2023-05-19T04:01:10.142Z,20.50
2023-05-19T04:01:42.576Z,20.90
2023-05-19T04:02:16.501Z,18.50
2023-05-19T04:02:47.492Z,17.40
2023-05-19T04:03:20.008Z,19.30
2023-05-19T04:03:52.345Z,17.70
2023-05-19T04:04:24.870Z,15.80
2023-05-19T04:04:57.283Z,15.80
2023-05-19T04:05:29.672Z,14.50
2023-05-19T04:06:02.123Z,15.80
2023-05-19T04:06:34.561Z,16.40
2023-05-19T04:07:07.006Z,17.20
2023-05-19T04:07:39.425Z,18.40
2023-05-19T04:08:11.851Z,17.70
2023-05-19T04:08:44.284Z,16.70
2023-05-19T04:09:16.718Z,19.10
2023-05-19T04:09:49.145Z,21.30
2023-05-19T04:10:21.590Z,18.50
2023-05-19T04:10:54.031Z,19.60
2023-05-19T04:11:26.466Z,22.30
2023-05-19T04:11:58.898Z,20.80
2023-05-19T04:12:31.336Z,17.50
2023-05-19T04:13:03.801Z,15.90
2023-05-19T04:13:36.242Z,16.20
2023-05-19T04:14:08.706Z,17.90
2023-05-19T04:14:41.097Z,21.50
2023-05-19T04:15:13.553Z,21.20
2023-05-19T04:15:46.094Z,25.60
2023-05-19T04:16:18.513Z,22.60
2023-05-19T04:16:50.907Z,20.00
2023-05-19T04:17:23.403Z,19.60
2023-05-19T04:17:55.875Z,22.10
2023-05-19T04:18:29.017Z,23.10
2023-05-19T04:19:00.986Z,29.00
2023-05-19T04:19:33.349Z,25.40
2023-05-19T04:20:05.793Z,17.30
2023-05-19T04:20:38.239Z,19.10
2023-05-19T04:21:10.645Z,16.90
2023-05-19T04:21:43.068Z,15.00
2023-05-19T04:22:15.516Z,17.40
2023-05-19T04:22:47.986Z,19.50
2023-05-19T04:23:20.434Z,19.40
2023-05-19T04:23:52.882Z,17.70
2023-05-19T04:24:25.301Z,19.50
2023-05-19T04:24:57.719Z,16.20
2023-05-19T04:25:30.142Z,15.80
2023-05-19T04:26:02.562Z,18.70
2023-05-19T04:26:34.996Z,18.00
2023-05-19T04:27:07.448Z,17.30
2023-05-19T04:27:39.904Z,12.10
2023-05-19T04:28:12.393Z,14.80
2023-05-19T04:28:44.843Z,18.40
2023-05-19T04:29:17.272Z,18.80
2023-05-19T04:29:49.756Z,19.50
2023-05-19T04:30:22.458Z,13.60
2023-05-19T04:30:54.664Z,16.00
2023-05-19T04:31:27.145Z,16.80
2023-05-19T04:31:59.504Z,14.50
2023-05-19T04:32:31.928Z,14.60
2023-05-19T04:33:04.402Z,20.80
2023-05-19T04:33:36.815Z,18.90
2023-05-19T04:34:09.244Z,20.30
2023-05-19T04:34:41.688Z,23.30
2023-05-19T04:35:14.200Z,19.30
2023-05-19T04:35:46.641Z,14.50
2023-05-19T04:36:19.111Z,19.10
2023-05-19T04:36:53.196Z,20.00
2023-05-19T04:37:24.013Z,14.80
2023-05-19T04:37:56.450Z,14.20
2023-05-19T04:38:28.906Z,14.90
2023-05-19T04:39:01.322Z,14.60
2023-05-19T04:39:33.746Z,19.40
2023-05-19T04:40:06.204Z,21.30
2023-05-19T04:40:38.661Z,19.20
2023-05-19T04:41:11.127Z,18.80
2023-05-19T04:41:43.549Z,19.40
2023-05-19T04:42:15.996Z,15.00
2023-05-19T04:42:48.427Z,15.10
2023-05-19T04:43:20.866Z,17.60
2023-05-19T04:43:53.353Z,17.30
2023-05-19T04:44:25.828Z,18.30
2023-05-19T04:44:58.305Z,13.30
2023-05-19T04:45:30.746Z,13.00
2023-05-19T04:46:03.445Z,14.50
2023-05-19T04:46:35.927Z,16.00
2023-05-19T04:47:08.404Z,15.40
2023-05-19T04:47:40.784Z,14.10
2023-05-19T04:48:13.210Z,12.40
2023-05-19T04:48:45.630Z,12.20
2023-05-19T04:49:18.239Z,13.50
2023-05-19T04:49:50.652Z,16.20
2023-05-19T04:50:23.110Z,16.70
2023-05-19T04:50:55.567Z,13.30
2023-05-19T04:51:29.234Z,16.30
2023-05-19T04:52:00.471Z,15.90
2023-05-19T04:52:32.919Z,12.20
2023-05-19T04:53:05.391Z,12.10
2023-05-19T04:53:37.870Z,10.90
2023-05-19T04:54:10.356Z,11.90
2023-05-19T04:54:42.814Z,13.40
2023-05-19T04:55:15.366Z,14.70
2023-05-19T04:55:47.882Z,15.60
2023-05-19T04:56:20.301Z,15.50
2023-05-19T04:56:52.757Z,15.90
2023-05-19T04:57:25.314Z,17.80
2023-05-19T04:57:57.791Z,20.50
2023-05-19T04:58:30.266Z,16.40
2023-05-19T04:59:02.696Z,11.40
2023-05-19T04:59:35.138Z,12.30
2023-05-19T05:00:07.682Z,11.80
2023-05-19T05:00:40.157Z,11.70
2023-05-19T05:01:12.600Z,9.70
2023-05-19T05:01:45.067Z,11.40
2023-05-19T05:02:17.582Z,11.70
2023-05-19T05:02:50.017Z,9.20
2023-05-19T05:03:22.506Z,10.10
2023-05-19T05:03:54.865Z,10.80
2023-05-19T05:04:27.279Z,12.20
2023-05-19T05:04:59.741Z,11.10
2023-05-19T05:05:32.212Z,11.30
2023-05-19T05:06:04.679Z,12.30
2023-05-19T05:06:37.077Z,11.10
2023-05-19T05:07:09.579Z,11.90
2023-05-19T05:07:42.077Z,12.60
2023-05-19T05:08:14.513Z,13.90
2023-05-19T05:08:47.102Z,13.70
2023-05-19T05:09:19.715Z,16.40
2023-05-19T05:09:52.193Z,12.60
2023-05-19T05:10:24.627Z,11.20
2023-05-19T05:10:57.078Z,12.50
2023-05-19T05:11:29.676Z,15.20
2023-05-19T05:12:02.120Z,17.10
2023-05-19T05:12:34.583Z,13.60
2023-05-19T05:13:07.059Z,12.80
2023-05-19T05:13:39.520Z,13.30
2023-05-19T05:14:11.979Z,11.40
2023-05-19T05:14:44.559Z,11.90
2023-05-19T05:15:17.017Z,14.90
2023-05-19T05:15:49.504Z,18.90
2023-05-19T05:16:21.987Z,14.80
2023-05-19T05:16:54.507Z,9.00
2023-05-19T05:17:26.921Z,9.80
2023-05-19T05:17:59.352Z,9.00
2023-05-19T05:18:31.775Z,10.50
2023-05-19T05:19:04.245Z,11.20
2023-05-19T05:19:36.674Z,9.40
2023-05-19T05:20:09.128Z,15.10
2023-05-19T05:20:41.569Z,14.30
2023-05-19T05:21:14.013Z,11.10
2023-05-19T05:21:46.424Z,12.40
2023-05-19T05:22:18.882Z,12.50
2023-05-19T05:22:51.320Z,11.90
2023-05-19T05:23:23.830Z,10.20
2023-05-19T05:23:56.263Z,9.10
2023-05-19T05:24:28.701Z,10.00
2023-05-19T05:25:01.134Z,8.70
2023-05-19T05:25:33.792Z,9.60
2023-05-19T05:26:06.022Z,10.30
2023-05-19T05:26:38.483Z,9.90
2023-05-19T05:27:10.905Z,8.80
2023-05-19T05:27:43.345Z,10.50
2023-05-19T05:28:15.794Z,12.00
2023-05-19T05:28:48.244Z,9.00
2023-05-19T05:29:20.696Z,10.50
2023-05-19T05:29:53.125Z,10.90
2023-05-19T05:30:25.536Z,13.00
2023-05-19T05:30:57.957Z,14.10
2023-05-19T05:31:30.420Z,14.30
2023-05-19T05:32:02.871Z,14.30
2023-05-19T05:32:35.431Z,13.50
2023-05-19T05:33:07.830Z,13.50
2023-05-19T05:33:40.242Z,9.80
2023-05-19T05:34:12.651Z,8.90
2023-05-19T05:34:45.109Z,11.00
2023-05-19T05:35:17.562Z,13.70
2023-05-19T05:35:49.993Z,12.80
2023-05-19T05:36:22.432Z,9.60
2023-05-19T05:36:54.826Z,9.00
2023-05-19T05:37:27.291Z,9.70
2023-05-19T05:37:59.738Z,12.00
2023-05-19T05:38:32.178Z,12.60
2023-05-19T05:39:04.672Z,12.30
2023-05-19T05:39:37.129Z,12.10
2023-05-19T05:40:09.564Z,11.60
2023-05-19T05:40:41.978Z,9.70
2023-05-19T05:41:14.408Z,7.70
2023-05-19T05:41:46.898Z,9.10
2023-05-19T05:42:19.363Z,9.50
2023-05-19T05:42:51.810Z,10.00
2023-05-19T05:43:24.236Z,10.50
2023-05-19T05:43:56.683Z,11.20
2023-05-19T05:44:29.124Z,14.60
2023-05-19T05:45:01.538Z,8.70
2023-05-19T05:45:34.216Z,9.90
2023-05-19T05:46:06.441Z,9.30
2023-05-19T05:46:38.863Z,7.00
2023-05-19T05:47:11.325Z,6.70
2023-05-19T05:47:43.797Z,8.40
2023-05-19T05:48:16.274Z,11.20
2023-05-19T05:48:48.680Z,7.80
2023-05-19T05:49:21.104Z,11.10
2023-05-19T05:49:53.698Z,10.40
2023-05-19T05:50:26.031Z,10.70
2023-05-19T05:50:58.479Z,9.20
2023-05-19T05:51:30.902Z,7.30
2023-05-19T05:52:06.174Z,9.00
2023-05-19T05:52:35.810Z,10.40
2023-05-19T05:53:08.236Z,10.50
2023-05-19T05:53:40.672Z,12.10
2023-05-19T05:54:13.108Z,12.40
2023-05-19T05:54:45.567Z,11.20
2023-05-19T05:55:17.992Z,15.10
2023-05-19T05:55:50.448Z,15.00
2023-05-19T05:56:22.886Z,9.90
2023-05-19T05:56:55.340Z,12.20
2023-05-19T05:57:27.801Z,14.40
2023-05-19T05:58:00.288Z,12.30
2023-05-19T05:58:32.786Z,11.90
2023-05-19T05:59:05.253Z,11.20
2023-05-19T05:59:37.699Z,9.10
2023-05-19T06:00:10.137Z,7.80
2023-05-19T06:00:42.625Z,6.30
2023-05-19T06:01:15.083Z,9.70
2023-05-19T06:01:47.520Z,8.60
2023-05-19T06:02:20.005Z,8.40
2023-05-19T06:02:52.504Z,9.10
2023-05-19T06:03:24.951Z,7.30
2023-05-19T06:03:57.266Z,5.40
2023-05-19T06:04:29.720Z,7.50
2023-05-19T06:05:02.181Z,10.30
2023-05-19T06:05:34.663Z,10.60
2023-05-19T06:06:07.101Z,9.70
2023-05-19T06:06:39.560Z,5.70
2023-05-19T06:07:12.027Z,6.80
2023-05-19T06:07:44.520Z,9.00
2023-05-19T06:08:17.246Z,9.60
2023-05-19T06:08:49.789Z,8.60
2023-05-19T06:09:22.281Z,8.90
2023-05-19T06:09:54.767Z,11.20
2023-05-19T06:10:27.231Z,9.40
2023-05-19T06:10:59.667Z,11.80
2023-05-19T06:11:32.139Z,14.80
2023-05-19T06:12:04.602Z,11.90
2023-05-19T06:12:37.047Z,10.90
2023-05-19T06:13:09.521Z,9.50
2023-05-19T06:13:42.008Z,10.70
2023-05-19T06:14:14.412Z,10.80
2023-05-19T06:14:46.816Z,8.70
2023-05-19T06:15:19.294Z,9.50
2023-05-19T06:15:51.774Z,8.20
2023-05-19T06:16:24.177Z,10.40
2023-05-19T06:16:56.630Z,10.20
2023-05-19T06:17:29.123Z,7.40
2023-05-19T06:18:01.548Z,8.60
2023-05-19T06:18:33.921Z,9.40
2023-05-19T06:19:06.459Z,9.90
2023-05-19T06:19:38.825Z,8.30
2023-05-19T06:20:11.342Z,7.20
2023-05-19T06:20:43.769Z,11.20
2023-05-19T06:21:16.215Z,18.40
2023-05-19T06:21:48.661Z,13.80
2023-05-19T06:22:21.115Z,7.20
2023-05-19T06:22:53.573Z,9.30
2023-05-19T06:23:26.013Z,12.70
2023-05-19T06:23:58.547Z,10.80
2023-05-19T06:24:31.043Z,10.70
2023-05-19T06:25:03.622Z,11.90
2023-05-19T06:25:36.048Z,12.90
2023-05-19T06:26:08.517Z,12.80
2023-05-19T06:26:40.955Z,10.90
2023-05-19T06:27:13.392Z,8.70
2023-05-19T06:27:45.859Z,8.90
2023-05-19T06:28:18.359Z,10.00
2023-05-19T06:28:50.809Z,10.30
2023-05-19T06:29:23.256Z,10.90
2023-05-19T06:29:55.729Z,9.50
2023-05-19T06:30:28.195Z,7.40
2023-05-19T06:31:00.728Z,8.20
2023-05-19T06:31:33.227Z,9.30
2023-05-19T06:32:05.593Z,9.20
2023-05-19T06:32:38.224Z,8.00
2023-05-19T06:33:10.662Z,5.50
2023-05-19T06:33:43.104Z,6.80
2023-05-19T06:34:15.691Z,8.00
2023-05-19T06:34:48.260Z,9.30
2023-05-19T06:35:20.737Z,10.60
2023-05-19T06:35:53.326Z,10.00
2023-05-19T06:36:25.757Z,11.70
2023-05-19T06:36:58.203Z,10.50
2023-05-19T06:37:30.628Z,10.80
2023-05-19T06:38:03.080Z,9.40
2023-05-19T06:38:35.553Z,7.30
2023-05-19T06:39:08.005Z,11.90
2023-05-19T06:39:40.414Z,13.00
2023-05-19T06:40:12.864Z,8.70
2023-05-19T06:40:45.326Z,6.50
2023-05-19T06:41:17.782Z,7.90
2023-05-19T06:41:50.229Z,9.70
2023-05-19T06:42:22.777Z,7.30
2023-05-19T06:42:55.212Z,9.30
2023-05-19T06:43:27.672Z,9.90
2023-05-19T06:44:00.119Z,6.20
2023-05-19T06:44:32.586Z,6.90
2023-05-19T06:45:05.047Z,6.60
2023-05-19T06:45:37.479Z,8.30
2023-05-19T06:46:09.923Z,11.10
2023-05-19T06:46:42.470Z,10.10
2023-05-19T06:47:14.988Z,7.30
2023-05-19T06:47:47.404Z,6.90
2023-05-19T06:48:19.825Z,9.00
2023-05-19T06:48:52.351Z,7.60
2023-05-19T06:49:24.800Z,7.30
2023-05-19T06:49:57.729Z,8.40
2023-05-19T06:50:30.234Z,5.70
2023-05-19T06:51:02.594Z,5.50
2023-05-19T06:51:35.042Z,6.70
2023-05-19T06:52:07.499Z,5.80
2023-05-19T06:52:39.975Z,7.80
2023-05-19T06:53:12.464Z,8.60
2023-05-19T06:53:44.953Z,8.20
2023-05-19T06:54:17.403Z,7.20
2023-05-19T06:54:49.821Z,8.90
2023-05-19T06:55:22.274Z,9.80
2023-05-19T06:55:59.366Z,9.90
2023-05-19T06:56:27.361Z,8.70
2023-05-19T06:56:59.810Z,9.90
2023-05-19T06:57:32.275Z,10.10
2023-05-19T06:58:04.735Z,7.60
2023-05-19T06:58:37.246Z,9.80
2023-05-19T06:59:09.640Z,10.10
2023-05-19T06:59:42.091Z,15.70
2023-05-19T07:00:17.615Z,13.30